sensor_id;sensor_type;location;lat;lon;timestamp;temperature;humidity
11246;DHT22;59870;50.106;8.580;2023-03-16T00:16:39;3.80;84.60
11246;DHT22;59870;50.106;8.580;2023-03-16T00:21:14;4.60;85.60
11246;DHT22;59870;50.106;8.580;2023-03-16T02:37:48;3.30;90.00
11246;DHT22;59870;50.106;8.580;2023-03-16T04:22:01;3.60;91.60
11246;DHT22;59870;50.106;8.580;2023-03-16T06:19:53;3.70;92.70
11246;DHT22;59870;50.106;8.580;2023-03-16T06:25:48;3.80;92.90
11246;DHT22;59870;50.106;8.580;2023-03-16T06:29:11;3.90;92.80
11246;DHT22;59870;50.106;8.580;2023-03-16T06:33:17;4.00;92.80
11246;DHT22;59870;50.106;8.580;2023-03-16T06:39:17;4.10;92.70
11246;DHT22;59870;50.106;8.580;2023-03-16T06:42:20;4.30;92.70
11246;DHT22;59870;50.106;8.580;2023-03-16T06:44:55;4.30;92.60
11246;DHT22;59870;50.106;8.580;2023-03-16T06:47:26;4.20;92.50
11246;DHT22;59870;50.106;8.580;2023-03-16T06:49:55;4.40;92.70
11246;DHT22;59870;50.106;8.580;2023-03-16T06:55:38;4.70;92.90
11246;DHT22;59870;50.106;8.580;2023-03-16T07:02:21;4.80;92.70
11246;DHT22;59870;50.106;8.580;2023-03-16T07:35:33;6.30;91.90
11246;DHT22;59870;50.106;8.580;2023-03-16T07:38:02;6.50;91.60
11246;DHT22;59870;50.106;8.580;2023-03-16T08:21:39;11.90;77.50
11246;DHT22;59870;50.106;8.580;2023-03-16T08:24:29;12.50;75.70
11246;DHT22;59870;50.106;8.580;2023-03-16T08:26:58;13.00;74.40
11246;DHT22;59870;50.106;8.580;2023-03-16T08:29:41;13.40;73.60
11246;DHT22;59870;50.106;8.580;2023-03-16T08:32:16;13.80;71.30
11246;DHT22;59870;50.106;8.580;2023-03-16T08:38:06;14.80;71.30
11246;DHT22;59870;50.106;8.580;2023-03-16T08:43:46;15.80;70.40
11246;DHT22;59870;50.106;8.580;2023-03-16T08:49:24;16.70;66.10
11246;DHT22;59870;50.106;8.580;2023-03-16T08:52:19;17.20;63.60
11246;DHT22;59870;50.106;8.580;2023-03-16T08:57:53;18.00;59.80
11246;DHT22;59870;50.106;8.580;2023-03-16T09:00:22;18.40;57.90
11246;DHT22;59870;50.106;8.580;2023-03-16T09:02:51;18.30;56.60
11246;DHT22;59870;50.106;8.580;2023-03-16T09:05:20;19.00;56.00
11246;DHT22;59870;50.106;8.580;2023-03-16T09:07:49;19.30;56.00
11246;DHT22;59870;50.106;8.580;2023-03-16T09:10:17;19.50;56.80
11246;DHT22;59870;50.106;8.580;2023-03-16T09:12:49;19.80;53.00
11246;DHT22;59870;50.106;8.580;2023-03-16T09:15:19;20.10;52.70
11246;DHT22;59870;50.106;8.580;2023-03-16T09:17:48;20.30;51.60
11246;DHT22;59870;50.106;8.580;2023-03-16T09:20:17;20.40;48.80
11246;DHT22;59870;50.106;8.580;2023-03-16T09:22:53;20.50;48.80
11246;DHT22;59870;50.106;8.580;2023-03-16T09:25:22;20.40;49.50
11246;DHT22;59870;50.106;8.580;2023-03-16T09:27:50;20.50;49.50
11246;DHT22;59870;50.106;8.580;2023-03-16T09:30:18;20.60;49.00
11246;DHT22;59870;50.106;8.580;2023-03-16T09:32:51;20.80;48.60
11246;DHT22;59870;50.106;8.580;2023-03-16T09:35:19;20.60;46.30
11246;DHT22;59870;50.106;8.580;2023-03-16T09:37:47;20.70;50.00
11246;DHT22;59870;50.106;8.580;2023-03-16T09:40:33;20.70;51.00
11246;DHT22;59870;50.106;8.580;2023-03-16T09:43:13;20.20;45.90
11246;DHT22;59870;50.106;8.580;2023-03-16T09:48:38;19.10;49.30
11246;DHT22;59870;50.106;8.580;2023-03-16T09:54:16;18.60;51.80
11246;DHT22;59870;50.106;8.580;2023-03-16T09:57:10;18.30;49.00
11246;DHT22;59870;50.106;8.580;2023-03-16T10:00:20;18.00;51.40
11246;DHT22;59870;50.106;8.580;2023-03-16T10:06:54;17.80;51.80
11246;DHT22;59870;50.106;8.580;2023-03-16T10:09:38;17.70;52.00
11246;DHT22;59870;50.106;8.580;2023-03-16T10:12:31;17.50;51.80
11246;DHT22;59870;50.106;8.580;2023-03-16T10:15:28;17.30;52.50
11246;DHT22;59870;50.106;8.580;2023-03-16T10:18:00;17.30;51.10
11246;DHT22;59870;50.106;8.580;2023-03-16T10:20:32;17.10;52.60
11246;DHT22;59870;50.106;8.580;2023-03-16T10:23:12;16.60;53.10
11246;DHT22;59870;50.106;8.580;2023-03-16T10:26:11;16.50;52.90
11246;DHT22;59870;50.106;8.580;2023-03-16T10:28:39;16.40;53.40
11246;DHT22;59870;50.106;8.580;2023-03-16T10:31:10;16.30;52.60
11246;DHT22;59870;50.106;8.580;2023-03-16T10:33:39;16.10;53.70
11246;DHT22;59870;50.106;8.580;2023-03-16T10:39:02;16.00;55.10
11246;DHT22;59870;50.106;8.580;2023-03-16T10:41:35;16.50;54.40
11246;DHT22;59870;50.106;8.580;2023-03-16T10:44:26;15.80;54.30
11246;DHT22;59870;50.106;8.580;2023-03-16T10:47:03;15.80;54.70
11246;DHT22;59870;50.106;8.580;2023-03-16T10:52:27;15.60;54.80
11246;DHT22;59870;50.106;8.580;2023-03-16T10:55:06;15.40;55.80
11246;DHT22;59870;50.106;8.580;2023-03-16T10:57:43;15.30;56.50
11246;DHT22;59870;50.106;8.580;2023-03-16T11:00:45;15.40;56.20
11246;DHT22;59870;50.106;8.580;2023-03-16T11:03:29;15.80;57.00
11246;DHT22;59870;50.106;8.580;2023-03-16T11:06:54;15.40;56.50
11246;DHT22;59870;50.106;8.580;2023-03-16T11:09:25;15.70;56.60
11246;DHT22;59870;50.106;8.580;2023-03-16T11:11:59;15.50;57.40
11246;DHT22;59870;50.106;8.580;2023-03-16T11:14:27;15.20;56.40
11246;DHT22;59870;50.106;8.580;2023-03-16T11:17:11;15.10;56.80
11246;DHT22;59870;50.106;8.580;2023-03-16T11:19:53;15.30;57.30
11246;DHT22;59870;50.106;8.580;2023-03-16T11:22:25;14.90;57.00
11246;DHT22;59870;50.106;8.580;2023-03-16T11:27:45;15.20;57.20
11246;DHT22;59870;50.106;8.580;2023-03-16T11:32:50;14.80;58.10
11246;DHT22;59870;50.106;8.580;2023-03-16T11:35:26;14.70;57.70
11246;DHT22;59870;50.106;8.580;2023-03-16T11:38:16;14.60;57.70
11246;DHT22;59870;50.106;8.580;2023-03-16T11:41:08;14.50;58.10
11246;DHT22;59870;50.106;8.580;2023-03-16T11:44:05;14.30;58.70
11246;DHT22;59870;50.106;8.580;2023-03-16T12:00:54;14.10;59.40
11246;DHT22;59870;50.106;8.580;2023-03-16T12:09:36;14.50;59.60
11246;DHT22;59870;50.106;8.580;2023-03-16T12:12:28;14.50;59.40
11246;DHT22;59870;50.106;8.580;2023-03-16T12:18:07;14.70;59.80
11246;DHT22;59870;50.106;8.580;2023-03-16T12:20:46;14.80;58.40
11246;DHT22;59870;50.106;8.580;2023-03-16T12:23:20;14.70;58.70
11246;DHT22;59870;50.106;8.580;2023-03-16T12:25:56;14.70;59.30
11246;DHT22;59870;50.106;8.580;2023-03-16T12:28:27;14.70;59.20
11246;DHT22;59870;50.106;8.580;2023-03-16T12:31:12;14.70;59.10
11246;DHT22;59870;50.106;8.580;2023-03-16T12:34:05;14.70;59.60
11246;DHT22;59870;50.106;8.580;2023-03-16T12:36:51;14.70;59.20
11246;DHT22;59870;50.106;8.580;2023-03-16T12:45:13;14.80;58.90
11246;DHT22;59870;50.106;8.580;2023-03-16T12:48:03;15.20;59.60
11246;DHT22;59870;50.106;8.580;2023-03-16T12:50:34;14.80;59.30
11246;DHT22;59870;50.106;8.580;2023-03-16T12:53:39;14.90;59.30
11246;DHT22;59870;50.106;8.580;2023-03-16T12:56:10;14.70;59.50
11246;DHT22;59870;50.106;8.580;2023-03-16T12:58:44;14.60;60.20
11246;DHT22;59870;50.106;8.580;2023-03-16T13:01:15;14.70;60.20
11246;DHT22;59870;50.106;8.580;2023-03-16T13:03:46;14.80;60.00
11246;DHT22;59870;50.106;8.580;2023-03-16T13:06:17;14.80;59.30
11246;DHT22;59870;50.106;8.580;2023-03-16T13:08:49;14.90;59.30
11246;DHT22;59870;50.106;8.580;2023-03-16T13:11:18;15.00;59.80
11246;DHT22;59870;50.106;8.580;2023-03-16T13:14:07;15.10;58.80
11246;DHT22;59870;50.106;8.580;2023-03-16T13:16:39;15.10;59.70
11246;DHT22;59870;50.106;8.580;2023-03-16T13:19:28;15.10;59.40
11246;DHT22;59870;50.106;8.580;2023-03-16T13:22:01;15.00;58.70
11246;DHT22;59870;50.106;8.580;2023-03-16T13:24:38;15.00;58.80
11246;DHT22;59870;50.106;8.580;2023-03-16T13:27:20;15.00;59.60
11246;DHT22;59870;50.106;8.580;2023-03-16T13:29:56;15.00;59.60
11246;DHT22;59870;50.106;8.580;2023-03-16T13:32:25;15.10;59.30
11246;DHT22;59870;50.106;8.580;2023-03-16T13:35:00;15.20;59.60
11246;DHT22;59870;50.106;8.580;2023-03-16T13:37:28;15.20;59.10
11246;DHT22;59870;50.106;8.580;2023-03-16T13:39:58;15.10;60.40
11246;DHT22;59870;50.106;8.580;2023-03-16T13:42:30;15.10;59.80
11246;DHT22;59870;50.106;8.580;2023-03-16T13:45:10;15.00;58.80
11246;DHT22;59870;50.106;8.580;2023-03-16T13:47:41;15.00;60.00
11246;DHT22;59870;50.106;8.580;2023-03-16T13:50:11;15.20;59.90
11246;DHT22;59870;50.106;8.580;2023-03-16T13:52:40;14.80;60.00
11246;DHT22;59870;50.106;8.580;2023-03-16T13:55:29;15.20;60.20
11246;DHT22;59870;50.106;8.580;2023-03-16T13:57:57;15.20;61.20
11246;DHT22;59870;50.106;8.580;2023-03-16T14:00:44;15.00;60.60
11246;DHT22;59870;50.106;8.580;2023-03-16T14:03:17;15.20;60.60
11246;DHT22;59870;50.106;8.580;2023-03-16T14:05:51;15.20;59.90
11246;DHT22;59870;50.106;8.580;2023-03-16T14:08:23;15.20;59.90
11246;DHT22;59870;50.106;8.580;2023-03-16T14:10:53;15.20;59.90
11246;DHT22;59870;50.106;8.580;2023-03-16T14:18:40;15.10;60.10
11246;DHT22;59870;50.106;8.580;2023-03-16T14:21:13;15.10;60.50
11246;DHT22;59870;50.106;8.580;2023-03-16T14:23:44;15.20;60.40
11246;DHT22;59870;50.106;8.580;2023-03-16T14:26:15;15.10;60.60
11246;DHT22;59870;50.106;8.580;2023-03-16T14:29:00;15.10;60.40
11246;DHT22;59870;50.106;8.580;2023-03-16T14:31:35;15.10;60.80
11246;DHT22;59870;50.106;8.580;2023-03-16T14:37:03;15.00;60.80
11246;DHT22;59870;50.106;8.580;2023-03-16T14:39:31;15.00;61.10
11246;DHT22;59870;50.106;8.580;2023-03-16T14:42:05;15.00;61.20
11246;DHT22;59870;50.106;8.580;2023-03-16T14:44:37;15.00;61.60
11246;DHT22;59870;50.106;8.580;2023-03-16T14:47:05;15.00;61.20
11246;DHT22;59870;50.106;8.580;2023-03-16T14:49:35;15.00;62.10
11246;DHT22;59870;50.106;8.580;2023-03-16T14:52:07;15.00;61.90
11246;DHT22;59870;50.106;8.580;2023-03-16T14:54:38;15.00;61.80
11246;DHT22;59870;50.106;8.580;2023-03-16T14:57:15;15.10;62.10
11246;DHT22;59870;50.106;8.580;2023-03-16T15:03:02;15.10;62.30
11246;DHT22;59870;50.106;8.580;2023-03-16T15:05:49;14.80;62.50
11246;DHT22;59870;50.106;8.580;2023-03-16T15:11:11;15.30;62.00
11246;DHT22;59870;50.106;8.580;2023-03-16T15:13:40;15.30;62.20
11246;DHT22;59870;50.106;8.580;2023-03-16T15:16:11;15.70;61.70
11246;DHT22;59870;50.106;8.580;2023-03-16T15:18:41;15.30;61.60
11246;DHT22;59870;50.106;8.580;2023-03-16T15:21:14;15.30;61.60
11246;DHT22;59870;50.106;8.580;2023-03-16T15:23:43;15.40;61.40
11246;DHT22;59870;50.106;8.580;2023-03-16T15:26:12;15.40;61.20
11246;DHT22;59870;50.106;8.580;2023-03-16T15:28:40;15.40;61.70
11246;DHT22;59870;50.106;8.580;2023-03-16T15:31:11;15.50;61.80
11246;DHT22;59870;50.106;8.580;2023-03-16T15:33:39;15.30;61.00
11246;DHT22;59870;50.106;8.580;2023-03-16T15:36:18;15.20;60.90
11246;DHT22;59870;50.106;8.580;2023-03-16T15:38:48;15.20;61.40
11246;DHT22;59870;50.106;8.580;2023-03-16T15:41:16;15.20;61.20
11246;DHT22;59870;50.106;8.580;2023-03-16T15:43:44;15.20;61.30
11246;DHT22;59870;50.106;8.580;2023-03-16T15:46:12;15.20;61.40
11246;DHT22;59870;50.106;8.580;2023-03-16T15:48:41;15.10;60.90
11246;DHT22;59870;50.106;8.580;2023-03-16T15:51:19;15.20;60.80
11246;DHT22;59870;50.106;8.580;2023-03-16T15:53:51;15.10;60.50
11246;DHT22;59870;50.106;8.580;2023-03-16T15:56:25;15.20;60.90
11246;DHT22;59870;50.106;8.580;2023-03-16T15:58:58;15.20;60.60
11246;DHT22;59870;50.106;8.580;2023-03-16T16:01:31;15.30;60.30
11246;DHT22;59870;50.106;8.580;2023-03-16T16:04:01;15.30;60.00
11246;DHT22;59870;50.106;8.580;2023-03-16T16:06:29;15.30;59.90
11246;DHT22;59870;50.106;8.580;2023-03-16T16:08:58;15.30;60.40
11246;DHT22;59870;50.106;8.580;2023-03-16T16:11:26;15.20;59.60
11246;DHT22;59870;50.106;8.580;2023-03-16T16:13:56;15.10;59.80
11246;DHT22;59870;50.106;8.580;2023-03-16T16:16:26;15.10;60.10
11246;DHT22;59870;50.106;8.580;2023-03-16T16:18:58;15.00;60.40
11246;DHT22;59870;50.106;8.580;2023-03-16T16:21:27;15.10;60.10
11246;DHT22;59870;50.106;8.580;2023-03-16T16:23:58;15.10;59.80
11246;DHT22;59870;50.106;8.580;2023-03-16T16:26:30;15.10;59.70
11246;DHT22;59870;50.106;8.580;2023-03-16T16:29:26;15.10;59.70
11246;DHT22;59870;50.106;8.580;2023-03-16T16:31:56;15.10;59.60
11246;DHT22;59870;50.106;8.580;2023-03-16T16:34:24;15.10;59.60
11246;DHT22;59870;50.106;8.580;2023-03-16T16:36:54;15.10;59.60
11246;DHT22;59870;50.106;8.580;2023-03-16T16:39:22;15.00;59.40
11246;DHT22;59870;50.106;8.580;2023-03-16T16:49:40;14.90;60.20
11246;DHT22;59870;50.106;8.580;2023-03-16T16:52:14;14.90;60.90
11246;DHT22;59870;50.106;8.580;2023-03-16T16:54:42;14.90;60.20
11246;DHT22;59870;50.106;8.580;2023-03-16T16:57:15;14.90;60.20
11246;DHT22;59870;50.106;8.580;2023-03-16T16:59:45;14.90;60.10
11246;DHT22;59870;50.106;8.580;2023-03-16T17:02:24;14.90;60.00
11246;DHT22;59870;50.106;8.580;2023-03-16T17:04:54;14.90;60.00
11246;DHT22;59870;50.106;8.580;2023-03-16T17:07:22;14.90;59.70
11246;DHT22;59870;50.106;8.580;2023-03-16T17:09:49;14.70;59.40
11246;DHT22;59870;50.106;8.580;2023-03-16T17:12:20;14.80;59.00
11246;DHT22;59870;50.106;8.580;2023-03-16T17:14:49;14.60;59.20
11246;DHT22;59870;50.106;8.580;2023-03-16T17:17:17;14.50;58.90
11246;DHT22;59870;50.106;8.580;2023-03-16T17:19:45;14.40;59.80
11246;DHT22;59870;50.106;8.580;2023-03-16T17:22:23;14.40;60.00
11246;DHT22;59870;50.106;8.580;2023-03-16T17:24:52;14.30;59.50
11246;DHT22;59870;50.106;8.580;2023-03-16T17:27:26;14.30;60.30
11246;DHT22;59870;50.106;8.580;2023-03-16T17:29:54;14.30;60.10
11246;DHT22;59870;50.106;8.580;2023-03-16T17:32:22;14.30;60.10
11246;DHT22;59870;50.106;8.580;2023-03-16T17:34:50;14.30;60.10
11246;DHT22;59870;50.106;8.580;2023-03-16T17:37:20;14.30;60.50
11246;DHT22;59870;50.106;8.580;2023-03-16T17:39:48;14.30;60.80
11246;DHT22;59870;50.106;8.580;2023-03-16T17:42:17;14.30;60.50
11246;DHT22;59870;50.106;8.580;2023-03-16T17:44:50;14.40;61.00
11246;DHT22;59870;50.106;8.580;2023-03-16T17:47:24;14.40;60.80
11246;DHT22;59870;50.106;8.580;2023-03-16T17:49:53;14.40;60.60
11246;DHT22;59870;50.106;8.580;2023-03-16T17:52:25;14.40;60.80
11246;DHT22;59870;50.106;8.580;2023-03-16T17:54:53;14.30;60.80
11246;DHT22;59870;50.106;8.580;2023-03-16T17:57:30;14.30;60.90
11246;DHT22;59870;50.106;8.580;2023-03-16T17:59:59;14.20;60.80
11246;DHT22;59870;50.106;8.580;2023-03-16T18:02:49;14.20;61.00
11246;DHT22;59870;50.106;8.580;2023-03-16T18:05:23;14.20;61.00
11246;DHT22;59870;50.106;8.580;2023-03-16T18:07:52;14.20;61.00
11246;DHT22;59870;50.106;8.580;2023-03-16T18:10:29;14.20;61.70
11246;DHT22;59870;50.106;8.580;2023-03-16T18:13:05;14.10;61.40
11246;DHT22;59870;50.106;8.580;2023-03-16T18:15:35;14.10;61.20
11246;DHT22;59870;50.106;8.580;2023-03-16T18:18:06;14.10;61.20
11246;DHT22;59870;50.106;8.580;2023-03-16T18:20:34;14.50;61.50
11246;DHT22;59870;50.106;8.580;2023-03-16T18:23:18;14.40;61.60
11246;DHT22;59870;50.106;8.580;2023-03-16T18:25:50;14.10;61.40
11246;DHT22;59870;50.106;8.580;2023-03-16T18:28:19;14.10;61.60
11246;DHT22;59870;50.106;8.580;2023-03-16T18:31:17;14.10;61.60
11246;DHT22;59870;50.106;8.580;2023-03-16T18:33:48;14.10;61.70
11246;DHT22;59870;50.106;8.580;2023-03-16T18:36:25;14.10;61.50
11246;DHT22;59870;50.106;8.580;2023-03-16T18:38:59;14.00;61.60
11246;DHT22;59870;50.106;8.580;2023-03-16T18:41:30;14.00;61.60
11246;DHT22;59870;50.106;8.580;2023-03-16T18:44:11;14.00;61.70
11246;DHT22;59870;50.106;8.580;2023-03-16T18:47:18;14.30;61.60
11246;DHT22;59870;50.106;8.580;2023-03-16T18:49:50;14.10;61.40
11246;DHT22;59870;50.106;8.580;2023-03-16T18:52:45;14.00;60.70
11246;DHT22;59870;50.106;8.580;2023-03-16T18:55:18;13.60;61.00
11246;DHT22;59870;50.106;8.580;2023-03-16T18:57:51;13.90;61.00
11246;DHT22;59870;50.106;8.580;2023-03-16T19:00:24;13.90;61.50
11246;DHT22;59870;50.106;8.580;2023-03-16T19:02:56;13.90;61.80
11246;DHT22;59870;50.106;8.580;2023-03-16T19:05:32;13.80;62.10
11246;DHT22;59870;50.106;8.580;2023-03-16T19:08:03;13.80;61.60
11246;DHT22;59870;50.106;8.580;2023-03-16T19:10:33;13.80;61.80
11246;DHT22;59870;50.106;8.580;2023-03-16T19:13:02;13.80;62.40
11246;DHT22;59870;50.106;8.580;2023-03-16T19:15:35;13.80;61.80
11246;DHT22;59870;50.106;8.580;2023-03-16T19:18:05;13.70;61.60
11246;DHT22;59870;50.106;8.580;2023-03-16T19:20:34;13.80;61.70
11246;DHT22;59870;50.106;8.580;2023-03-16T19:23:14;13.70;61.50
11246;DHT22;59870;50.106;8.580;2023-03-16T19:25:43;13.70;61.60
11246;DHT22;59870;50.106;8.580;2023-03-16T19:28:28;13.70;61.60
11246;DHT22;59870;50.106;8.580;2023-03-16T19:31:01;13.60;61.50
11246;DHT22;59870;50.106;8.580;2023-03-16T19:33:29;13.70;61.50
11246;DHT22;59870;50.106;8.580;2023-03-16T19:35:57;13.70;61.40
11246;DHT22;59870;50.106;8.580;2023-03-16T19:38:26;13.70;61.40
11246;DHT22;59870;50.106;8.580;2023-03-16T19:40:59;13.60;61.40
11246;DHT22;59870;50.106;8.580;2023-03-16T19:43:27;13.60;61.40
11246;DHT22;59870;50.106;8.580;2023-03-16T19:45:55;13.60;61.30
11246;DHT22;59870;50.106;8.580;2023-03-16T19:48:32;13.50;61.30
11246;DHT22;59870;50.106;8.580;2023-03-16T19:51:00;13.50;61.40
11246;DHT22;59870;50.106;8.580;2023-03-16T19:53:27;13.40;61.60
11246;DHT22;59870;50.106;8.580;2023-03-16T19:55:55;13.40;61.80
11246;DHT22;59870;50.106;8.580;2023-03-16T19:58:36;13.40;61.60
11246;DHT22;59870;50.106;8.580;2023-03-16T20:01:17;13.40;62.00
11246;DHT22;59870;50.106;8.580;2023-03-16T20:03:46;13.40;62.20
11246;DHT22;59870;50.106;8.580;2023-03-16T20:06:19;13.40;62.00
11246;DHT22;59870;50.106;8.580;2023-03-16T20:08:48;13.30;61.90
11246;DHT22;59870;50.106;8.580;2023-03-16T20:11:26;13.40;62.30
11246;DHT22;59870;50.106;8.580;2023-03-16T20:13:55;13.30;62.20
11246;DHT22;59870;50.106;8.580;2023-03-16T20:16:34;13.30;62.20
11246;DHT22;59870;50.106;8.580;2023-03-16T20:19:11;13.30;62.40
11246;DHT22;59870;50.106;8.580;2023-03-16T20:21:40;13.20;62.20
11246;DHT22;59870;50.106;8.580;2023-03-16T20:24:13;13.20;63.00
11246;DHT22;59870;50.106;8.580;2023-03-16T20:26:43;13.20;62.70
11246;DHT22;59870;50.106;8.580;2023-03-16T20:29:32;13.20;62.90
11246;DHT22;59870;50.106;8.580;2023-03-16T20:32:00;13.10;62.90
11246;DHT22;59870;50.106;8.580;2023-03-16T20:34:30;13.10;63.40
11246;DHT22;59870;50.106;8.580;2023-03-16T20:36:58;13.00;63.00
11246;DHT22;59870;50.106;8.580;2023-03-16T20:39:25;13.00;63.20
11246;DHT22;59870;50.106;8.580;2023-03-16T20:41:52;13.00;62.90
11246;DHT22;59870;50.106;8.580;2023-03-16T20:44:20;12.90;62.90
11246;DHT22;59870;50.106;8.580;2023-03-16T20:46:51;12.90;63.00
11246;DHT22;59870;50.106;8.580;2023-03-16T20:51:50;12.90;63.30
11246;DHT22;59870;50.106;8.580;2023-03-16T20:54:17;12.80;63.40
11246;DHT22;59870;50.106;8.580;2023-03-16T20:56:45;12.80;63.80
11246;DHT22;59870;50.106;8.580;2023-03-16T20:59:18;12.80;64.00
11246;DHT22;59870;50.106;8.580;2023-03-16T21:01:47;12.70;63.50
11246;DHT22;59870;50.106;8.580;2023-03-16T21:04:20;12.70;63.70
11246;DHT22;59870;50.106;8.580;2023-03-16T21:06:48;12.70;63.50
11246;DHT22;59870;50.106;8.580;2023-03-16T21:09:18;12.70;63.70
11246;DHT22;59870;50.106;8.580;2023-03-16T21:11:46;12.60;63.40
11246;DHT22;59870;50.106;8.580;2023-03-16T21:14:21;12.60;63.60
11246;DHT22;59870;50.106;8.580;2023-03-16T21:16:49;12.50;63.70
11246;DHT22;59870;50.106;8.580;2023-03-16T21:19:19;12.50;63.80
11246;DHT22;59870;50.106;8.580;2023-03-16T21:21:48;12.50;64.00
11246;DHT22;59870;50.106;8.580;2023-03-16T21:24:15;11.90;63.50
11246;DHT22;59870;50.106;8.580;2023-03-16T21:26:44;12.40;64.30
11246;DHT22;59870;50.106;8.580;2023-03-16T21:29:17;12.30;64.40
11246;DHT22;59870;50.106;8.580;2023-03-16T21:31:47;12.30;64.80
11246;DHT22;59870;50.106;8.580;2023-03-16T21:34:23;12.20;64.80
11246;DHT22;59870;50.106;8.580;2023-03-16T21:36:51;12.20;64.60
11246;DHT22;59870;50.106;8.580;2023-03-16T21:39:20;12.10;64.50
11246;DHT22;59870;50.106;8.580;2023-03-16T21:41:50;12.10;64.80
11246;DHT22;59870;50.106;8.580;2023-03-16T21:44:17;12.10;64.80
11246;DHT22;59870;50.106;8.580;2023-03-16T21:46:45;12.00;64.80
11246;DHT22;59870;50.106;8.580;2023-03-16T21:49:15;11.90;64.90
11246;DHT22;59870;50.106;8.580;2023-03-16T21:51:43;12.20;65.40
11246;DHT22;59870;50.106;8.580;2023-03-16T21:54:13;11.80;65.20
11246;DHT22;59870;50.106;8.580;2023-03-16T21:56:40;11.80;65.30
11246;DHT22;59870;50.106;8.580;2023-03-16T21:59:09;11.80;65.40
11246;DHT22;59870;50.106;8.580;2023-03-16T22:01:37;11.80;65.60
11246;DHT22;59870;50.106;8.580;2023-03-16T22:04:24;11.80;65.80
11246;DHT22;59870;50.106;8.580;2023-03-16T22:06:52;11.70;65.60
11246;DHT22;59870;50.106;8.580;2023-03-16T22:09:20;11.70;65.70
11246;DHT22;59870;50.106;8.580;2023-03-16T22:11:49;11.60;65.80
11246;DHT22;59870;50.106;8.580;2023-03-16T22:14:16;11.60;65.80
11246;DHT22;59870;50.106;8.580;2023-03-16T22:16:44;11.60;66.20
11246;DHT22;59870;50.106;8.580;2023-03-16T22:19:12;11.60;66.40
11246;DHT22;59870;50.106;8.580;2023-03-16T22:21:41;11.60;66.70
11246;DHT22;59870;50.106;8.580;2023-03-16T22:24:20;11.50;66.90
11246;DHT22;59870;50.106;8.580;2023-03-16T22:26:50;11.50;67.10
11246;DHT22;59870;50.106;8.580;2023-03-16T22:29:25;11.70;67.60
11246;DHT22;59870;50.106;8.580;2023-03-16T22:32:06;11.40;67.40
11246;DHT22;59870;50.106;8.580;2023-03-16T22:35:01;11.30;67.20
11246;DHT22;59870;50.106;8.580;2023-03-16T22:37:31;11.30;67.00
11246;DHT22;59870;50.106;8.580;2023-03-16T22:40:00;11.20;67.10
11246;DHT22;59870;50.106;8.580;2023-03-16T22:42:33;11.20;67.30
11246;DHT22;59870;50.106;8.580;2023-03-16T22:47:41;11.10;67.40
11246;DHT22;59870;50.106;8.580;2023-03-16T22:50:13;11.10;67.80
11246;DHT22;59870;50.106;8.580;2023-03-16T22:52:41;11.10;68.00
11246;DHT22;59870;50.106;8.580;2023-03-16T22:55:16;11.00;68.40
11246;DHT22;59870;50.106;8.580;2023-03-16T22:57:45;11.00;68.40
11246;DHT22;59870;50.106;8.580;2023-03-16T23:00:13;11.00;68.50
11246;DHT22;59870;50.106;8.580;2023-03-16T23:02:49;11.00;68.60
11246;DHT22;59870;50.106;8.580;2023-03-16T23:05:19;10.90;68.50
11246;DHT22;59870;50.106;8.580;2023-03-16T23:07:47;10.90;69.00
11246;DHT22;59870;50.106;8.580;2023-03-16T23:10:21;10.90;68.60
11246;DHT22;59870;50.106;8.580;2023-03-16T23:12:50;10.80;68.70
11246;DHT22;59870;50.106;8.580;2023-03-16T23:15:24;10.80;69.00
11246;DHT22;59870;50.106;8.580;2023-03-16T23:17:53;10.80;69.40
11246;DHT22;59870;50.106;8.580;2023-03-16T23:20:27;10.80;69.10
11246;DHT22;59870;50.106;8.580;2023-03-16T23:22:55;10.80;69.40
11246;DHT22;59870;50.106;8.580;2023-03-16T23:25:22;10.80;69.60
11246;DHT22;59870;50.106;8.580;2023-03-16T23:27:51;11.30;70.30
11246;DHT22;59870;50.106;8.580;2023-03-16T23:30:22;10.70;69.90
11246;DHT22;59870;50.106;8.580;2023-03-16T23:32:52;10.70;69.20
11246;DHT22;59870;50.106;8.580;2023-03-16T23:35:25;10.70;70.10
11246;DHT22;59870;50.106;8.580;2023-03-16T23:37:53;10.70;70.10
11246;DHT22;59870;50.106;8.580;2023-03-16T23:40:24;10.60;69.50
11246;DHT22;59870;50.106;8.580;2023-03-16T23:42:54;10.60;70.00
11246;DHT22;59870;50.106;8.580;2023-03-16T23:45:37;10.60;70.70
11246;DHT22;59870;50.106;8.580;2023-03-16T23:48:16;10.60;70.70
11246;DHT22;59870;50.106;8.580;2023-03-16T23:50:47;10.60;70.60
11246;DHT22;59870;50.106;8.580;2023-03-16T23:53:17;10.60;70.80
11246;DHT22;59870;50.106;8.580;2023-03-16T23:55:45;10.60;70.70
11246;DHT22;59870;50.106;8.580;2023-03-16T23:58:14;10.60;70.60
